Sect California, Puerto Rico
Current Conditions -  °F | °C
As of 3:50 PM on Friday 24 Oct 2014 (Local Time) from TJBQ Reporting Station
Light Rain Light Rain  
Wind Chill: 82°   Ceiling: Unl
Heat Index: 91°   Visibility: 10mi
Dew Point: 77°   Wind: 3mph
Humidity: 84%   Direction: 10°N
Pressure: 29.88"   Gusts: NA
Location:  18.4951°N, 67.0273°W
Report Text: TJBQ 241950Z 01003KT 10SM -RA SCT080 SCT120 28/25 A2988 RMK RWY08 - ATIS Z
Loading
Personal Weather Stations






























Interactive Weather Map
Tropical Storm Tracking
New forecast layout! Learn more

10-Day Weather Forecast

Advertisements
Track Severe Weather on mobile